Ms Atlantic — V7SM5 — position and weather

sailwx.info

Track history (hours):
 
Tides and Currents Weather Stations Pressure Air Temp Water Temp Dewpoint Dewpoint Depression Visibility Wind Speed Wind Dir Waves Ship Positions

Ms Atlantic

Last reported at 2018-Apr-19 22:31 UTC. Time now 2018-Apr-25 05:09 UTC.
Position N 60°29' E 019°02'.

Length 180 m; draft 7 m.

Type: Cargo ship. MMSI: 538003682.

Date/timePositionNaut miles runAvg speedWind from/ knotsBaromVisibWave heightAir tempDewpointWater temp
2018-Apr-19 22:31N 60°29' E 019°02'714.1
2018-Apr-19 22:01N 60°22' E 019°01'813.9
2018-Apr-19 21:28N 60°14' E 019°03'613.6
2018-Apr-19 21:00N 60°09' E 019°10'713.8
2018-Apr-19 20:30N 60°04' E 019°18'713.7
2018-Apr-19 20:00N 59°58' E 019°27'713.5
2018-Apr-19 19:30N 59°53' E 019°35'713.5
2018-Apr-19 18:58N 59°48' E 019°45'713.2
2018-Apr-19 18:24N 59°42' E 019°55'24413.0
2018-Apr-18 23:36N 56°01' E 016°42'613.4
2018-Apr-18 23:09N 55°58' E 016°33'213.4
2018-Apr-18 22:58N 55°57' E 016°29'613.4
2018-Apr-18 22:30N 55°54' E 016°20'713.3
2018-Apr-18 22:00N 55°51' E 016°09'713.3
2018-Apr-18 21:30N 55°48' E 015°59'713.3
2018-Apr-18 21:00N 55°45' E 015°48'713.3
2018-Apr-18 20:30N 55°41' E 015°38'713.2
2018-Apr-18 20:00N 55°38' E 015°28'713.2
2018-Apr-18 19:30N 55°35' E 015°17'713.3
2018-Apr-18 19:00N 55°33' E 015°06'713.3
2018-Apr-18 18:30N 55°29' E 014°56'713.2
2018-Apr-18 18:00N 55°26' E 014°46'713.2
2018-Apr-18 17:30N 55°22' E 014°37'713.5
2018-Apr-18 17:00N 55°17' E 014°30'713.4
2018-Apr-18 16:30N 55°12' E 014°22'712.4
2018-Apr-18 15:59N 55°10' E 014°11'4113.7
2018-Apr-18 13:00N 55°14' E 013°00'1013.7
2018-Apr-18 12:18N 55°16' E 012°44'412.9
2018-Apr-18 12:00N 55°18' E 012°38'713.0
2018-Apr-18 11:30N 55°25' E 012°39'713.2
2018-Apr-18 11:00N 55°31' E 012°42'611.3
2018-Apr-18 10:30N 55°37' E 012°42'612.9
2018-Apr-18 10:00N 55°43' E 012°41'713.2
2018-Apr-18 09:30N 55°50' E 012°42'713.0
2018-Apr-18 09:00N 55°56' E 012°39'713.0
2018-Apr-18 08:30N 56°03' E 012°39'612.7
2018-Apr-18 08:00N 56°07' E 012°30'52 9.3
2018-Apr-18 02:23N 56°53' E 011°47'4 9.8
2018-Apr-18 01:59N 56°57' E 011°44'4 9.5
2018-Apr-18 01:30N 57°01' E 011°41'4 8.0
2018-Apr-18 01:00N 57°04' E 011°36'3 5.6
2018-Apr-18 00:30N 57°06' E 011°32'2 4.6
2018-Apr-18 00:00N 57°08' E 011°32'4 8.4
2018-Apr-17 23:30N 57°12' E 011°33'4 7.4
2018-Apr-17 23:00N 57°16' E 011°30'4 8.1
2018-Apr-17 22:30N 57°19' E 011°25'5 9.3
2018-Apr-17 22:00N 57°23' E 011°26'5 9.3
2018-Apr-17 21:30N 57°28' E 011°24'4 8.6
2018-Apr-17 21:00N 57°26' E 011°31'611.4
2018-Apr-17 20:30N 57°20' E 011°35'5 9.4
2018-Apr-17 20:00N 57°17' E 011°31'510.5
2018-Apr-17 19:30N 57°21' E 011°24'611.6
2018-Apr-17 19:00N 57°26' E 011°24'611.0
2018-Apr-17 18:30N 57°31' E 011°18'611.5
2018-Apr-17 18:00N 57°35' E 011°10'611.5
2018-Apr-17 17:30N 57°39' E 011°02'611.7
2018-Apr-17 17:00N 57°43' E 010°54'611.4
2018-Apr-17 16:30N 57°47' E 010°47'612.8
2018-Apr-17 16:00N 57°48' E 010°35'713.8
2018-Apr-17 15:30N 57°47' E 010°22'7714.5
2018-Apr-17 10:10N 57°30' E 008°01'314.4
2018-Apr-17 09:59N 57°29' E 007°57'254 5.3
2018-Apr-15 10:28N 53°38' E 004°50'712.9
2018-Apr-15 09:56N 53°32' E 004°45'2013.0
2018-Apr-15 08:23N 53°13' E 004°33'512.9
2018-Apr-15 08:00N 53°09' E 004°29'612.9
2018-Apr-15 07:30N 53°03' E 004°23'813.2
2018-Apr-15 06:54N 52°56' E 004°17'2513.8
2018-Apr-15 05:04N 52°35' E 003°53'214.4
2018-Apr-15 04:55N 52°34' E 003°51'3914.0
2018-Apr-15 02:09N 51°59' E 003°23'215.0
2018-Apr-15 02:00N 51°56' E 003°23'714.9
2018-Apr-15 01:30N 51°49' E 003°19'713.6
2018-Apr-15 01:00N 51°42' E 003°18'611.7
2018-Apr-15 00:29N 51°37' E 003°22'612.4
2018-Apr-15 00:00N 51°32' E 003°26'610.8
2018-Apr-14 23:30N 51°27' E 003°31'4 8.0
2018-Apr-14 23:00N 51°26' E 003°37'4 9.0
2018-Apr-14 22:31N 51°23' E 003°43'510.3
2018-Apr-14 22:01N 51°21' E 003°50'5 9.8
2018-Apr-14 21:30N 51°24' E 003°57'3 7.1
2018-Apr-14 21:01N 51°25' E 004°02'5 9.4
2018-Apr-14 20:31N 51°22' E 004°08'4 8.1
2018-Apr-14 20:00N 51°21' E 004°14'2 3.8
2018-Apr-14 19:28N 51°21' E 004°17'0 0.0
2018-Apr-14 19:00N 51°21' E 004°17'1 1.0
2018-Apr-14 18:29N 51°21' E 004°18'1 2.5
2018-Apr-14 17:59N 51°20' E 004°19'0 0.0
2018-Apr-14 17:30N 51°20' E 004°19'0 0.0
2018-Apr-14 16:54N 51°20' E 004°19'0 0.0
2018-Apr-14 16:23N 51°20' E 004°19'0 0.0
2018-Apr-14 15:59N 51°20' E 004°19'0 0.0
2018-Apr-14 15:26N 51°20' E 004°19'0 0.0
2018-Apr-14 14:59N 51°20' E 004°19'0 0.0
2018-Apr-14 14:30N 51°20' E 004°19'0 0.0
2018-Apr-14 13:58N 51°20' E 004°19'0 0.0
2018-Apr-14 13:30N 51°20' E 004°19'0 0.0
2018-Apr-14 13:00N 51°20' E 004°19'0 0.0
2018-Apr-14 12:30N 51°20' E 004°19'0 0.0
2018-Apr-14 12:00N 51°20' E 004°19'0 0.0
2018-Apr-14 11:30N 51°20' E 004°19'0 0.0
2018-Apr-14 11:00N 51°20' E 004°19'0 0.0
2018-Apr-14 10:30N 51°20' E 004°19'0 0.0
2018-Apr-14 10:00N 51°20' E 004°19'0 0.0
2018-Apr-14 09:30N 51°20' E 004°19'0 0.0
2018-Apr-14 09:00N 51°20' E 004°19'0 0.0
2018-Apr-14 08:30N 51°20' E 004°19'0 0.0
2018-Apr-14 08:00N 51°20' E 004°19'0 0.0
2018-Apr-14 07:29N 51°20' E 004°19'0 0.0
2018-Apr-14 07:00N 51°20' E 004°19'0 0.0
2018-Apr-14 06:30N 51°20' E 004°19'0 0.0
2018-Apr-14 06:00N 51°20' E 004°19'0 0.0
2018-Apr-14 05:30N 51°20' E 004°19'0 0.0
2018-Apr-14 05:00N 51°20' E 004°19'0 0.0
2018-Apr-14 04:30N 51°20' E 004°19'0 0.0
2018-Apr-14 04:00N 51°20' E 004°19'0 0.0
2018-Apr-14 03:30N 51°20' E 004°19'0 0.0
2018-Apr-14 03:00N 51°20' E 004°19'0 0.0
2018-Apr-14 02:30N 51°20' E 004°19'0 0.0
2018-Apr-14 02:00N 51°20' E 004°19'0 0.0
2018-Apr-14 01:30N 51°20' E 004°19'0 0.0
2018-Apr-14 01:00N 51°20' E 004°19'0 0.0
2018-Apr-14 00:27N 51°20' E 004°19'0 0.0
2018-Apr-14 00:00N 51°20' E 004°19'0 0.0
2018-Apr-13 23:27N 51°20' E 004°19'0 0.0
2018-Apr-13 23:00N 51°20' E 004°19'0 0.0
2018-Apr-13 22:30N 51°20' E 004°19'0 0.0
2018-Apr-13 22:00N 51°20' E 004°19'0 0.0
2018-Apr-13 21:30N 51°20' E 004°19'0 0.0
2018-Apr-13 20:59N 51°20' E 004°19'0 0.0
2018-Apr-13 20:30N 51°20' E 004°19'0 0.0
2018-Apr-13 20:00N 51°20' E 004°19'0 0.0
2018-Apr-13 19:30N 51°20' E 004°19'0 0.0
2018-Apr-13 19:00N 51°20' E 004°19'0 0.0
2018-Apr-13 18:30N 51°20' E 004°19'0 0.0
2018-Apr-13 18:00N 51°20' E 004°19'0 0.0
2018-Apr-13 17:30N 51°20' E 004°19'0 0.0
2018-Apr-13 16:58N 51°20' E 004°19'0 0.0
2018-Apr-13 16:30N 51°20' E 004°19'0 0.0
2018-Apr-13 15:56N 51°20' E 004°19'0 0.0
2018-Apr-13 15:30N 51°20' E 004°19'0 0.0
2018-Apr-13 14:59N 51°20' E 004°19'0 0.0
2018-Apr-13 14:29N 51°20' E 004°19'0 0.0
2018-Apr-13 14:00N 51°20' E 004°19'0 0.0
2018-Apr-13 13:29N 51°20' E 004°19'0 0.0
2018-Apr-13 13:00N 51°20' E 004°19'0 0.0
2018-Apr-13 12:28N 51°20' E 004°19'0 0.0
2018-Apr-13 12:00N 51°20' E 004°19'0 0.0
2018-Apr-13 11:30N 51°20' E 004°19'0 0.0
2018-Apr-13 11:00N 51°20' E 004°19'0 0.0
2018-Apr-13 10:30N 51°20' E 004°19'0 0.0
2018-Apr-13 10:00N 51°20' E 004°19'0 0.0
2018-Apr-13 09:30N 51°20' E 004°19'0 0.0
2018-Apr-13 09:00N 51°20' E 004°19'0 0.0
2018-Apr-13 08:30N 51°20' E 004°19'0 0.0
2018-Apr-13 07:59N 51°20' E 004°19'0 0.0
2018-Apr-13 07:30N 51°20' E 004°19'0 0.0
2018-Apr-13 07:00N 51°20' E 004°19'0 0.0
2018-Apr-13 06:30N 51°20' E 004°19'0 0.0
2018-Apr-13 05:59N 51°20' E 004°19'0 0.0
2018-Apr-13 05:30N 51°20' E 004°19'0 0.0
2018-Apr-13 05:00N 51°20' E 004°19'0 0.0
2018-Apr-13 04:29N 51°20' E 004°19'0 0.0
2018-Apr-13 04:00N 51°20' E 004°19'0 0.0
2018-Apr-13 03:30N 51°20' E 004°19'0 0.0
2018-Apr-13 03:00N 51°20' E 004°19'0 0.0
2018-Apr-13 02:29N 51°20' E 004°19'0 0.0
2018-Apr-13 02:00N 51°20' E 004°19'0 0.0
2018-Apr-13 01:30N 51°20' E 004°19'0 0.0
2018-Apr-13 01:00N 51°20' E 004°19'0 0.0
2018-Apr-13 00:30N 51°20' E 004°19'0 0.0
2018-Apr-13 00:00N 51°20' E 004°19'0 0.0
2018-Apr-12 23:30N 51°20' E 004°19'0 0.0
2018-Apr-12 23:00N 51°20' E 004°19'0 0.0
2018-Apr-12 22:30N 51°20' E 004°19'0 0.0
2018-Apr-12 22:00N 51°20' E 004°19'0 0.0
2018-Apr-12 21:30N 51°20' E 004°19'0 0.0
2018-Apr-12 21:00N 51°20' E 004°19'0 0.0
2018-Apr-12 20:30N 51°20' E 004°19'0 0.0
2018-Apr-12 20:00N 51°20' E 004°19'0 0.0
2018-Apr-12 19:29N 51°20' E 004°19'0 0.0
2018-Apr-12 19:00N 51°20' E 004°19'0 0.0
2018-Apr-12 18:29N 51°20' E 004°19'0 0.0
2018-Apr-12 17:58N 51°20' E 004°19'0 0.0
2018-Apr-12 17:30N 51°20' E 004°19'0 0.0
2018-Apr-12 17:00N 51°20' E 004°19'0 0.0
2018-Apr-12 16:30N 51°20' E 004°19'0 0.0
2018-Apr-12 16:00N 51°20' E 004°19'0 0.0
2018-Apr-12 15:30N 51°20' E 004°19'0 0.0
2018-Apr-12 15:00N 51°20' E 004°19'1 1.1
2018-Apr-12 14:30N 51°20' E 004°18'1 2.6
2018-Apr-12 14:00N 51°21' E 004°17'0 0.0
2018-Apr-12 13:31N 51°21' E 004°17'0 0.0
2018-Apr-12 13:01N 51°21' E 004°17'1 2.6
2018-Apr-12 12:31N 51°21' E 004°15'4 7.6
2018-Apr-12 12:00N 51°23' E 004°10'510.1
2018-Apr-12 11:30N 51°24' E 004°02'3 6.7
2018-Apr-12 11:00N 51°23' E 003°57'612.8
2018-Apr-12 10:30N 51°21' E 003°47'612.3
2018-Apr-12 10:00N 51°26' E 003°41'611.2
2018-Apr-12 09:30N 51°25' E 003°32'713.4
2018-Apr-12 09:01N 51°24' E 003°22'714.0
2018-Apr-12 08:31N 51°24' E 003°10'612.3
2018-Apr-12 08:00N 51°24' E 003°00'611.8
2018-Apr-12 07:30N 51°22' E 002°51'611.6
2018-Apr-12 07:00N 51°21' E 002°42'2 3.1
2018-Apr-12 06:21N 51°22' E 002°39'2 6.3
2018-Apr-12 05:59N 51°22' E 002°35'4 7.6
2018-Apr-12 05:30N 51°22' E 002°30'4 7.8
2018-Apr-12 05:00N 51°20' E 002°24'5 9.4
2018-Apr-12 04:28N 51°18' E 002°17'4 9.6
2018-Apr-12 04:00N 51°15' E 002°11'5 9.7
2018-Apr-12 03:30N 51°12' E 002°04'510.0
2018-Apr-12 03:00N 51°10' E 001°57'510.2
2018-Apr-12 02:30N 51°08' E 001°50'510.1
2018-Apr-12 02:00N 51°05' E 001°44'510.5
2018-Apr-12 01:30N 51°01' E 001°37'6410.4
2018-Apr-11 19:22N 50°22' E 000°19'411.3
2018-Apr-11 18:59N 50°20' E 000°12'611.4
2018-Apr-11 18:30N 50°19' E 000°04'611.9
2018-Apr-11 18:00N 50°18' W 000°05'612.2
2018-Apr-11 17:30N 50°16' W 000°15'612.3
2018-Apr-11 17:00N 50°14' W 000°24'612.4
2018-Apr-11 16:30N 50°13' W 000°33'612.3
2018-Apr-11 16:00N 50°11' W 000°42'612.1
2018-Apr-11 15:30N 50°09' W 000°51'612.9
2018-Apr-11 15:00N 50°08' W 001°01'612.6
2018-Apr-11 14:30N 50°06' W 001°11'612.2
2018-Apr-11 14:00N 50°05' W 001°20'611.7
2018-Apr-11 13:30N 50°03' W 001°29'611.2
2018-Apr-11 13:00N 50°01' W 001°37'510.7
2018-Apr-11 12:30N 50°00' W 001°45'510.6
2018-Apr-11 12:00N 49°59' W 001°53'610.3
2018-Apr-11 11:25N 49°57' W 002°02'510.0
2018-Apr-11 10:58N 49°56' W 002°09'4410.7
2018-Apr-11 06:50N 49°48' W 003°16'411.1
2018-Apr-11 06:30N 49°47' W 003°22'610.7
2018-Apr-11 05:57N 49°47' W 003°31'1010.8
2018-Apr-11 05:02N 49°46' W 003°46'010.9
2018-Apr-11 05:00N 49°46' W 003°47'  
Track history (hours):
 
Tides and Currents Weather Stations Pressure Air Temp Water Temp Dewpoint Dewpoint Depression Visibility Wind Speed Wind Dir Waves Ship Positions

Ms Atlantic

Last reported at 2018-Apr-19 22:31 UTC. Time now 2018-Apr-25 05:09 UTC.
Position N 60°29' E 019°02'.

Length 180 m; draft 7 m.

Type: Cargo ship. MMSI: 538003682.

Date/timePositionNaut miles runAvg speedWind from/ knotsBaromVisibWave heightAir tempDewpointWater temp
2018-Apr-19 22:31N 60°29' E 019°02'714.1
2018-Apr-19 22:01N 60°22' E 019°01'813.9
2018-Apr-19 21:28N 60°14' E 019°03'613.6
2018-Apr-19 21:00N 60°09' E 019°10'713.8
2018-Apr-19 20:30N 60°04' E 019°18'713.7
2018-Apr-19 20:00N 59°58' E 019°27'713.5
2018-Apr-19 19:30N 59°53' E 019°35'713.5
2018-Apr-19 18:58N 59°48' E 019°45'713.2
2018-Apr-19 18:24N 59°42' E 019°55'24413.0
2018-Apr-18 23:36N 56°01' E 016°42'613.4
2018-Apr-18 23:09N 55°58' E 016°33'213.4
2018-Apr-18 22:58N 55°57' E 016°29'613.4
2018-Apr-18 22:30N 55°54' E 016°20'713.3
2018-Apr-18 22:00N 55°51' E 016°09'713.3
2018-Apr-18 21:30N 55°48' E 015°59'713.3
2018-Apr-18 21:00N 55°45' E 015°48'713.3
2018-Apr-18 20:30N 55°41' E 015°38'713.2
2018-Apr-18 20:00N 55°38' E 015°28'713.2
2018-Apr-18 19:30N 55°35' E 015°17'713.3
2018-Apr-18 19:00N 55°33' E 015°06'713.3
2018-Apr-18 18:30N 55°29' E 014°56'713.2
2018-Apr-18 18:00N 55°26' E 014°46'713.2
2018-Apr-18 17:30N 55°22' E 014°37'713.5
2018-Apr-18 17:00N 55°17' E 014°30'713.4
2018-Apr-18 16:30N 55°12' E 014°22'712.4
2018-Apr-18 15:59N 55°10' E 014°11'4113.7
2018-Apr-18 13:00N 55°14' E 013°00'1013.7
2018-Apr-18 12:18N 55°16' E 012°44'412.9
2018-Apr-18 12:00N 55°18' E 012°38'713.0
2018-Apr-18 11:30N 55°25' E 012°39'713.2
2018-Apr-18 11:00N 55°31' E 012°42'611.3
2018-Apr-18 10:30N 55°37' E 012°42'612.9
2018-Apr-18 10:00N 55°43' E 012°41'713.2
2018-Apr-18 09:30N 55°50' E 012°42'713.0
2018-Apr-18 09:00N 55°56' E 012°39'713.0
2018-Apr-18 08:30N 56°03' E 012°39'612.7
2018-Apr-18 08:00N 56°07' E 012°30'52 9.3
2018-Apr-18 02:23N 56°53' E 011°47'4 9.8
2018-Apr-18 01:59N 56°57' E 011°44'4 9.5
2018-Apr-18 01:30N 57°01' E 011°41'4 8.0
2018-Apr-18 01:00N 57°04' E 011°36'3 5.6
2018-Apr-18 00:30N 57°06' E 011°32'2 4.6
2018-Apr-18 00:00N 57°08' E 011°32'4 8.4
2018-Apr-17 23:30N 57°12' E 011°33'4 7.4
2018-Apr-17 23:00N 57°16' E 011°30'4 8.1
2018-Apr-17 22:30N 57°19' E 011°25'5 9.3
2018-Apr-17 22:00N 57°23' E 011°26'5 9.3
2018-Apr-17 21:30N 57°28' E 011°24'4 8.6
2018-Apr-17 21:00N 57°26' E 011°31'611.4
2018-Apr-17 20:30N 57°20' E 011°35'5 9.4
2018-Apr-17 20:00N 57°17' E 011°31'510.5
2018-Apr-17 19:30N 57°21' E 011°24'611.6
2018-Apr-17 19:00N 57°26' E 011°24'611.0
2018-Apr-17 18:30N 57°31' E 011°18'611.5
2018-Apr-17 18:00N 57°35' E 011°10'611.5
2018-Apr-17 17:30N 57°39' E 011°02'611.7
2018-Apr-17 17:00N 57°43' E 010°54'611.4
2018-Apr-17 16:30N 57°47' E 010°47'612.8
2018-Apr-17 16:00N 57°48' E 010°35'713.8
2018-Apr-17 15:30N 57°47' E 010°22'7714.5
2018-Apr-17 10:10N 57°30' E 008°01'314.4
2018-Apr-17 09:59N 57°29' E 007°57'254 5.3
2018-Apr-15 10:28N 53°38' E 004°50'712.9
2018-Apr-15 09:56N 53°32' E 004°45'2013.0
2018-Apr-15 08:23N 53°13' E 004°33'512.9
2018-Apr-15 08:00N 53°09' E 004°29'612.9
2018-Apr-15 07:30N 53°03' E 004°23'813.2
2018-Apr-15 06:54N 52°56' E 004°17'2513.8
2018-Apr-15 05:04N 52°35' E 003°53'214.4
2018-Apr-15 04:55N 52°34' E 003°51'3914.0
2018-Apr-15 02:09N 51°59' E 003°23'215.0
2018-Apr-15 02:00N 51°56' E 003°23'714.9
2018-Apr-15 01:30N 51°49' E 003°19'713.6
2018-Apr-15 01:00N 51°42' E 003°18'611.7
2018-Apr-15 00:29N 51°37' E 003°22'612.4
2018-Apr-15 00:00N 51°32' E 003°26'610.8
2018-Apr-14 23:30N 51°27' E 003°31'4 8.0
2018-Apr-14 23:00N 51°26' E 003°37'4 9.0
2018-Apr-14 22:31N 51°23' E 003°43'510.3
2018-Apr-14 22:01N 51°21' E 003°50'5 9.8
2018-Apr-14 21:30N 51°24' E 003°57'3 7.1
2018-Apr-14 21:01N 51°25' E 004°02'5 9.4
2018-Apr-14 20:31N 51°22' E 004°08'4 8.1
2018-Apr-14 20:00N 51°21' E 004°14'2 3.8
2018-Apr-14 19:28N 51°21' E 004°17'0 0.0
2018-Apr-14 19:00N 51°21' E 004°17'1 1.0
2018-Apr-14 18:29N 51°21' E 004°18'1 2.5
2018-Apr-14 17:59N 51°20' E 004°19'0 0.0
2018-Apr-14 17:30N 51°20' E 004°19'0 0.0
2018-Apr-14 16:54N 51°20' E 004°19'0 0.0
2018-Apr-14 16:23N 51°20' E 004°19'0 0.0
2018-Apr-14 15:59N 51°20' E 004°19'0 0.0
2018-Apr-14 15:26N 51°20' E 004°19'0 0.0
2018-Apr-14 14:59N 51°20' E 004°19'0 0.0
2018-Apr-14 14:30N 51°20' E 004°19'0 0.0
2018-Apr-14 13:58N 51°20' E 004°19'0 0.0
2018-Apr-14 13:30N 51°20' E 004°19'0 0.0
2018-Apr-14 13:00N 51°20' E 004°19'0 0.0
2018-Apr-14 12:30N 51°20' E 004°19'0 0.0
2018-Apr-14 12:00N 51°20' E 004°19'0 0.0
2018-Apr-14 11:30N 51°20' E 004°19'0 0.0
2018-Apr-14 11:00N 51°20' E 004°19'0 0.0
2018-Apr-14 10:30N 51°20' E 004°19'0 0.0
2018-Apr-14 10:00N 51°20' E 004°19'0 0.0
2018-Apr-14 09:30N 51°20' E 004°19'0 0.0
2018-Apr-14 09:00N 51°20' E 004°19'0 0.0
2018-Apr-14 08:30N 51°20' E 004°19'0 0.0
2018-Apr-14 08:00N 51°20' E 004°19'0 0.0
2018-Apr-14 07:29N 51°20' E 004°19'0 0.0
2018-Apr-14 07:00N 51°20' E 004°19'0 0.0
2018-Apr-14 06:30N 51°20' E 004°19'0 0.0
2018-Apr-14 06:00N 51°20' E 004°19'0 0.0
2018-Apr-14 05:30N 51°20' E 004°19'0 0.0
2018-Apr-14 05:00N 51°20' E 004°19'0 0.0
2018-Apr-14 04:30N 51°20' E 004°19'0 0.0
2018-Apr-14 04:00N 51°20' E 004°19'0 0.0
2018-Apr-14 03:30N 51°20' E 004°19'0 0.0
2018-Apr-14 03:00N 51°20' E 004°19'0 0.0
2018-Apr-14 02:30N 51°20' E 004°19'0 0.0
2018-Apr-14 02:00N 51°20' E 004°19'0 0.0
2018-Apr-14 01:30N 51°20' E 004°19'0 0.0
2018-Apr-14 01:00N 51°20' E 004°19'0 0.0
2018-Apr-14 00:27N 51°20' E 004°19'0 0.0
2018-Apr-14 00:00N 51°20' E 004°19'0 0.0
2018-Apr-13 23:27N 51°20' E 004°19'0 0.0
2018-Apr-13 23:00N 51°20' E 004°19'0 0.0
2018-Apr-13 22:30N 51°20' E 004°19'0 0.0
2018-Apr-13 22:00N 51°20' E 004°19'0 0.0
2018-Apr-13 21:30N 51°20' E 004°19'0 0.0
2018-Apr-13 20:59N 51°20' E 004°19'0 0.0
2018-Apr-13 20:30N 51°20' E 004°19'0 0.0
2018-Apr-13 20:00N 51°20' E 004°19'0 0.0
2018-Apr-13 19:30N 51°20' E 004°19'0 0.0
2018-Apr-13 19:00N 51°20' E 004°19'0 0.0
2018-Apr-13 18:30N 51°20' E 004°19'0 0.0
2018-Apr-13 18:00N 51°20' E 004°19'0 0.0
2018-Apr-13 17:30N 51°20' E 004°19'0 0.0
2018-Apr-13 16:58N 51°20' E 004°19'0 0.0
2018-Apr-13 16:30N 51°20' E 004°19'0 0.0
2018-Apr-13 15:56N 51°20' E 004°19'0 0.0
2018-Apr-13 15:30N 51°20' E 004°19'0 0.0
2018-Apr-13 14:59N 51°20' E 004°19'0 0.0
2018-Apr-13 14:29N 51°20' E 004°19'0 0.0
2018-Apr-13 14:00N 51°20' E 004°19'0 0.0
2018-Apr-13 13:29N 51°20' E 004°19'0 0.0
2018-Apr-13 13:00N 51°20' E 004°19'0 0.0
2018-Apr-13 12:28N 51°20' E 004°19'0 0.0
2018-Apr-13 12:00N 51°20' E 004°19'0 0.0
2018-Apr-13 11:30N 51°20' E 004°19'0 0.0
2018-Apr-13 11:00N 51°20' E 004°19'0 0.0
2018-Apr-13 10:30N 51°20' E 004°19'0 0.0
2018-Apr-13 10:00N 51°20' E 004°19'0 0.0
2018-Apr-13 09:30N 51°20' E 004°19'0 0.0
2018-Apr-13 09:00N 51°20' E 004°19'0 0.0
2018-Apr-13 08:30N 51°20' E 004°19'0 0.0
2018-Apr-13 07:59N 51°20' E 004°19'0 0.0
2018-Apr-13 07:30N 51°20' E 004°19'0 0.0
2018-Apr-13 07:00N 51°20' E 004°19'0 0.0
2018-Apr-13 06:30N 51°20' E 004°19'0 0.0
2018-Apr-13 05:59N 51°20' E 004°19'0 0.0
2018-Apr-13 05:30N 51°20' E 004°19'0 0.0
2018-Apr-13 05:00N 51°20' E 004°19'0 0.0
2018-Apr-13 04:29N 51°20' E 004°19'0 0.0
2018-Apr-13 04:00N 51°20' E 004°19'0 0.0
2018-Apr-13 03:30N 51°20' E 004°19'0 0.0
2018-Apr-13 03:00N 51°20' E 004°19'0 0.0
2018-Apr-13 02:29N 51°20' E 004°19'0 0.0
2018-Apr-13 02:00N 51°20' E 004°19'0 0.0
2018-Apr-13 01:30N 51°20' E 004°19'0 0.0
2018-Apr-13 01:00N 51°20' E 004°19'0 0.0
2018-Apr-13 00:30N 51°20' E 004°19'0 0.0
2018-Apr-13 00:00N 51°20' E 004°19'0 0.0
2018-Apr-12 23:30N 51°20' E 004°19'0 0.0
2018-Apr-12 23:00N 51°20' E 004°19'0 0.0
2018-Apr-12 22:30N 51°20' E 004°19'0 0.0
2018-Apr-12 22:00N 51°20' E 004°19'0 0.0
2018-Apr-12 21:30N 51°20' E 004°19'0 0.0
2018-Apr-12 21:00N 51°20' E 004°19'0 0.0
2018-Apr-12 20:30N 51°20' E 004°19'0 0.0
2018-Apr-12 20:00N 51°20' E 004°19'0 0.0
2018-Apr-12 19:29N 51°20' E 004°19'0 0.0
2018-Apr-12 19:00N 51°20' E 004°19'0 0.0
2018-Apr-12 18:29N 51°20' E 004°19'0 0.0
2018-Apr-12 17:58N 51°20' E 004°19'0 0.0
2018-Apr-12 17:30N 51°20' E 004°19'0 0.0
2018-Apr-12 17:00N 51°20' E 004°19'0 0.0
2018-Apr-12 16:30N 51°20' E 004°19'0 0.0
2018-Apr-12 16:00N 51°20' E 004°19'0 0.0
2018-Apr-12 15:30N 51°20' E 004°19'0 0.0
2018-Apr-12 15:00N 51°20' E 004°19'1 1.1
2018-Apr-12 14:30N 51°20' E 004°18'1 2.6
2018-Apr-12 14:00N 51°21' E 004°17'0 0.0
2018-Apr-12 13:31N 51°21' E 004°17'0 0.0
2018-Apr-12 13:01N 51°21' E 004°17'1 2.6
2018-Apr-12 12:31N 51°21' E 004°15'4 7.6
2018-Apr-12 12:00N 51°23' E 004°10'510.1
2018-Apr-12 11:30N 51°24' E 004°02'3 6.7
2018-Apr-12 11:00N 51°23' E 003°57'612.8
2018-Apr-12 10:30N 51°21' E 003°47'612.3
2018-Apr-12 10:00N 51°26' E 003°41'611.2
2018-Apr-12 09:30N 51°25' E 003°32'713.4
2018-Apr-12 09:01N 51°24' E 003°22'714.0
2018-Apr-12 08:31N 51°24' E 003°10'612.3
2018-Apr-12 08:00N 51°24' E 003°00'611.8
2018-Apr-12 07:30N 51°22' E 002°51'611.6
2018-Apr-12 07:00N 51°21' E 002°42'2 3.1
2018-Apr-12 06:21N 51°22' E 002°39'2 6.3
2018-Apr-12 05:59N 51°22' E 002°35'4 7.6
2018-Apr-12 05:30N 51°22' E 002°30'4 7.8
2018-Apr-12 05:00N 51°20' E 002°24'5 9.4
2018-Apr-12 04:28N 51°18' E 002°17'4 9.6
2018-Apr-12 04:00N 51°15' E 002°11'5 9.7
2018-Apr-12 03:30N 51°12' E 002°04'510.0
2018-Apr-12 03:00N 51°10' E 001°57'510.2
2018-Apr-12 02:30N 51°08' E 001°50'510.1
2018-Apr-12 02:00N 51°05' E 001°44'510.5
2018-Apr-12 01:30N 51°01' E 001°37'6410.4
2018-Apr-11 19:22N 50°22' E 000°19'411.3
2018-Apr-11 18:59N 50°20' E 000°12'611.4
2018-Apr-11 18:30N 50°19' E 000°04'611.9
2018-Apr-11 18:00N 50°18' W 000°05'612.2
2018-Apr-11 17:30N 50°16' W 000°15'612.3
2018-Apr-11 17:00N 50°14' W 000°24'612.4
2018-Apr-11 16:30N 50°13' W 000°33'612.3
2018-Apr-11 16:00N 50°11' W 000°42'612.1
2018-Apr-11 15:30N 50°09' W 000°51'612.9
2018-Apr-11 15:00N 50°08' W 001°01'612.6
2018-Apr-11 14:30N 50°06' W 001°11'612.2
2018-Apr-11 14:00N 50°05' W 001°20'611.7
2018-Apr-11 13:30N 50°03' W 001°29'611.2
2018-Apr-11 13:00N 50°01' W 001°37'510.7
2018-Apr-11 12:30N 50°00' W 001°45'510.6
2018-Apr-11 12:00N 49°59' W 001°53'610.3
2018-Apr-11 11:25N 49°57' W 002°02'510.0
2018-Apr-11 10:58N 49°56' W 002°09'4410.7
2018-Apr-11 06:50N 49°48' W 003°16'411.1
2018-Apr-11 06:30N 49°47' W 003°22'610.7
2018-Apr-11 05:57N 49°47' W 003°31'1010.8
2018-Apr-11 05:02N 49°46' W 003°46'010.9
2018-Apr-11 05:00N 49°46' W 003°47'  

Dump ship's entire track history